sensor_id;sensor_type;location;lat;lon;timestamp;pressure;altitude;pressure_sealevel;temperature;humidity
40982;BME280;26708;50.304;19.028;2023-11-18T00:00:24;98364.72;;;6.23;62.67
40982;BME280;26708;50.304;19.028;2023-11-18T00:02:29;98213.81;;;5.22;62.95
40982;BME280;26708;50.304;19.028;2023-11-18T00:04:36;98193.09;;;5.25;62.99
40982;BME280;26708;50.304;19.028;2023-11-18T00:06:42;98367.31;;;6.22;63.27
40982;BME280;26708;50.304;19.028;2023-11-18T00:08:48;98149.34;;;4.85;63.30
40982;BME280;26708;50.304;19.028;2023-11-18T00:10:53;98324.56;;;5.94;63.57
40982;BME280;26708;50.304;19.028;2023-11-18T00:12:59;98200.84;;;5.22;63.59
40982;BME280;26708;50.304;19.028;2023-11-18T00:15:05;98210.50;;;5.35;63.80
40982;BME280;26708;50.304;19.028;2023-11-18T00:17:10;98228.06;;;5.55;63.64
40982;BME280;26708;50.304;19.028;2023-11-18T00:19:18;98292.44;;;5.85;63.47
40982;BME280;26708;50.304;19.028;2023-11-18T00:21:23;98128.63;;;4.85;63.12
40982;BME280;26708;50.304;19.028;2023-11-18T00:23:28;98196.59;;;5.27;63.30
40982;BME280;26708;50.304;19.028;2023-11-18T00:25:33;98292.50;;;5.91;63.16
40982;BME280;26708;50.304;19.028;2023-11-18T00:27:41;98345.44;;;6.03;63.17
40982;BME280;26708;50.304;19.028;2023-11-18T00:29:45;98345.63;;;6.17;63.19
40982;BME280;26708;50.304;19.028;2023-11-18T00:31:52;98308.97;;;5.94;63.18
40982;BME280;26708;50.304;19.028;2023-11-18T00:33:57;98365.50;;;6.16;63.25
40982;BME280;26708;50.304;19.028;2023-11-18T00:36:06;98236.72;;;5.56;63.45
40982;BME280;26708;50.304;19.028;2023-11-18T00:38:12;98349.06;;;6.17;63.65
40982;BME280;26708;50.304;19.028;2023-11-18T00:40:17;98278.25;;;5.56;63.33
40982;BME280;26708;50.304;19.028;2023-11-18T00:42:24;98282.75;;;5.69;63.67
40982;BME280;26708;50.304;19.028;2023-11-18T00:44:27;98203.41;;;5.19;63.73
40982;BME280;26708;50.304;19.028;2023-11-18T00:46:32;98274.88;;;5.64;63.25
40982;BME280;26708;50.304;19.028;2023-11-18T00:48:38;98370.66;;;6.12;63.61
40982;BME280;26708;50.304;19.028;2023-11-18T00:50:44;98323.56;;;5.82;63.80
40982;BME280;26708;50.304;19.028;2023-11-18T00:52:51;98366.13;;;5.93;63.95
40982;BME280;26708;50.304;19.028;2023-11-18T00:54:56;98306.19;;;5.76;63.94
40982;BME280;26708;50.304;19.028;2023-11-18T00:57:02;98330.63;;;5.95;63.58
40982;BME280;26708;50.304;19.028;2023-11-18T00:59:17;98288.03;;;5.79;63.78
40982;BME280;26708;50.304;19.028;2023-11-18T01:01:23;98201.66;;;5.18;63.35
40982;BME280;26708;50.304;19.028;2023-11-18T01:03:31;98102.56;;;4.74;63.48
40982;BME280;26708;50.304;19.028;2023-11-18T01:05:42;98374.31;;;6.29;63.50
40982;BME280;26708;50.304;19.028;2023-11-18T01:08:15;98114.44;;;4.59;63.48
40982;BME280;26708;50.304;19.028;2023-11-18T01:10:24;98184.91;;;4.93;63.62
40982;BME280;26708;50.304;19.028;2023-11-18T01:12:42;98226.91;;;5.32;63.89
40982;BME280;26708;50.304;19.028;2023-11-18T01:14:53;98236.47;;;5.35;64.11
40982;BME280;26708;50.304;19.028;2023-11-18T01:17:06;98399.28;;;6.16;64.36
40982;BME280;26708;50.304;19.028;2023-11-18T01:19:32;98265.97;;;5.43;64.10
40982;BME280;26708;50.304;19.028;2023-11-18T01:21:45;98206.69;;;5.06;64.17
40982;BME280;26708;50.304;19.028;2023-11-18T01:23:54;98252.84;;;5.31;64.25
40982;BME280;26708;50.304;19.028;2023-11-18T01:26:00;98304.28;;;5.63;64.31
40982;BME280;26708;50.304;19.028;2023-11-18T01:28:02;98126.59;;;4.63;64.11
40982;BME280;26708;50.304;19.028;2023-11-18T01:30:09;98338.31;;;5.87;64.14
40982;BME280;26708;50.304;19.028;2023-11-18T01:32:13;98204.16;;;5.12;64.08
40982;BME280;26708;50.304;19.028;2023-11-18T01:34:23;98237.34;;;5.35;64.30
40982;BME280;26708;50.304;19.028;2023-11-18T01:36:32;98228.69;;;5.35;64.11
40982;BME280;26708;50.304;19.028;2023-11-18T01:38:34;98352.16;;;5.86;63.88
40982;BME280;26708;50.304;19.028;2023-11-18T01:40:46;98363.75;;;6.14;64.31
40982;BME280;26708;50.304;19.028;2023-11-18T01:42:53;98243.34;;;5.33;64.44
40982;BME280;26708;50.304;19.028;2023-11-18T01:45:20;98068.22;;;4.25;64.14
40982;BME280;26708;50.304;19.028;2023-11-18T01:47:49;98182.44;;;5.01;63.95
40982;BME280;26708;50.304;19.028;2023-11-18T01:50:58;98192.88;;;5.08;64.03
40982;BME280;26708;50.304;19.028;2023-11-18T01:58:05;98089.34;;;4.55;63.86
40982;BME280;26708;50.304;19.028;2023-11-18T02:01:04;98090.31;;;4.63;63.97
40982;BME280;26708;50.304;19.028;2023-11-18T02:03:54;98132.88;;;4.83;63.79
40982;BME280;26708;50.304;19.028;2023-11-18T02:06:24;98186.22;;;5.27;63.79
40982;BME280;26708;50.304;19.028;2023-11-18T02:09:12;98363.94;;;6.27;63.64
40982;BME280;26708;50.304;19.028;2023-11-18T02:12:29;98160.72;;;4.93;63.37
40982;BME280;26708;50.304;19.028;2023-11-18T02:15:35;98076.06;;;4.31;63.33
40982;BME280;26708;50.304;19.028;2023-11-18T02:18:38;98367.25;;;6.17;63.52
40982;BME280;26708;50.304;19.028;2023-11-18T02:26:58;98273.78;;;5.44;63.39
40982;BME280;26708;50.304;19.028;2023-11-18T02:29:09;98230.19;;;5.18;63.19
40982;BME280;26708;50.304;19.028;2023-11-18T02:31:20;98247.63;;;5.29;63.10
40982;BME280;26708;50.304;19.028;2023-11-18T02:33:38;98296.28;;;5.48;63.28
40982;BME280;26708;50.304;19.028;2023-11-18T02:35:52;98383.56;;;6.04;63.25
40982;BME280;26708;50.304;19.028;2023-11-18T02:38:00;98320.53;;;5.49;62.95
40982;BME280;26708;50.304;19.028;2023-11-18T02:40:12;98297.00;;;5.35;63.32
40982;BME280;26708;50.304;19.028;2023-11-18T02:42:24;98217.78;;;4.96;63.27
40982;BME280;26708;50.304;19.028;2023-11-18T02:44:33;98319.78;;;5.59;63.22
40982;BME280;26708;50.304;19.028;2023-11-18T02:46:39;98326.78;;;5.63;63.38
40982;BME280;26708;50.304;19.028;2023-11-18T02:48:44;98400.00;;;6.05;63.29
40982;BME280;26708;50.304;19.028;2023-11-18T02:50:49;98387.59;;;5.83;63.36
40982;BME280;26708;50.304;19.028;2023-11-18T02:53:00;98301.38;;;5.39;63.36
40982;BME280;26708;50.304;19.028;2023-11-18T02:55:06;98379.09;;;5.93;63.54
40982;BME280;26708;50.304;19.028;2023-11-18T02:57:13;98385.25;;;6.01;63.65
40982;BME280;26708;50.304;19.028;2023-11-18T02:59:21;98368.50;;;5.79;63.76
40982;BME280;26708;50.304;19.028;2023-11-18T03:01:26;98403.50;;;6.07;63.89
40982;BME280;26708;50.304;19.028;2023-11-18T03:03:33;98305.75;;;5.43;63.96
40982;BME280;26708;50.304;19.028;2023-11-18T03:05:44;98244.81;;;5.13;64.16
40982;BME280;26708;50.304;19.028;2023-11-18T03:07:50;98318.00;;;5.53;64.03
40982;BME280;26708;50.304;19.028;2023-11-18T03:10:16;98419.94;;;6.06;64.26
40982;BME280;26708;50.304;19.028;2023-11-18T03:12:26;98255.31;;;5.20;64.46
40982;BME280;26708;50.304;19.028;2023-11-18T03:14:33;98393.88;;;5.98;64.37
40982;BME280;26708;50.304;19.028;2023-11-18T03:16:38;98277.84;;;5.26;64.43
40982;BME280;26708;50.304;19.028;2023-11-18T03:18:49;98407.06;;;6.13;64.60
40982;BME280;26708;50.304;19.028;2023-11-18T03:20:56;98410.50;;;6.14;64.26
40982;BME280;26708;50.304;19.028;2023-11-18T03:23:02;98411.34;;;6.11;64.42
40982;BME280;26708;50.304;19.028;2023-11-18T03:25:11;98407.84;;;6.09;64.37
40982;BME280;26708;50.304;19.028;2023-11-18T03:27:23;98306.56;;;5.39;64.51
40982;BME280;26708;50.304;19.028;2023-11-18T03:29:29;98350.16;;;5.66;64.68
40982;BME280;26708;50.304;19.028;2023-11-18T03:31:42;98394.69;;;5.93;64.68
40982;BME280;26708;50.304;19.028;2023-11-18T03:33:50;98421.69;;;6.05;64.71
40982;BME280;26708;50.304;19.028;2023-11-18T03:35:54;98392.97;;;5.95;64.73
40982;BME280;26708;50.304;19.028;2023-11-18T03:38:02;98390.41;;;5.96;64.84
40982;BME280;26708;50.304;19.028;2023-11-18T03:40:12;98322.19;;;5.44;64.89
40982;BME280;26708;50.304;19.028;2023-11-18T03:42:20;98311.00;;;5.48;64.89
40982;BME280;26708;50.304;19.028;2023-11-18T03:44:35;98284.81;;;5.28;64.78
40982;BME280;26708;50.304;19.028;2023-11-18T03:46:45;98202.91;;;4.84;64.24
40982;BME280;26708;50.304;19.028;2023-11-18T03:49:10;98330.25;;;5.65;64.67
40982;BME280;26708;50.304;19.028;2023-11-18T03:52:14;98426.09;;;6.14;64.80
40982;BME280;26708;50.304;19.028;2023-11-18T03:55:41;98310.13;;;5.46;64.94
40982;BME280;26708;50.304;19.028;2023-11-18T03:57:49;98381.63;;;5.90;64.82
40982;BME280;26708;50.304;19.028;2023-11-18T03:59:56;98305.66;;;5.36;64.81
40982;BME280;26708;50.304;19.028;2023-11-18T04:02:07;98448.63;;;6.13;64.68
40982;BME280;26708;50.304;19.028;2023-11-18T04:04:12;98442.50;;;6.11;64.70
40982;BME280;26708;50.304;19.028;2023-11-18T04:06:19;98451.16;;;6.09;65.01
40982;BME280;26708;50.304;19.028;2023-11-18T04:08:44;98194.72;;;4.56;64.89
40982;BME280;26708;50.304;19.028;2023-11-18T04:10:59;98368.97;;;5.50;64.94
40982;BME280;26708;50.304;19.028;2023-11-18T04:13:18;98432.94;;;6.07;65.20
40982;BME280;26708;50.304;19.028;2023-11-18T04:15:25;98262.81;;;5.02;64.77
40982;BME280;26708;50.304;19.028;2023-11-18T04:17:52;98313.47;;;5.37;64.82
40982;BME280;26708;50.304;19.028;2023-11-18T04:19:59;98309.72;;;5.16;64.58
40982;BME280;26708;50.304;19.028;2023-11-18T04:22:08;98329.00;;;5.36;64.65
40982;BME280;26708;50.304;19.028;2023-11-18T04:24:37;98182.59;;;4.53;64.69
40982;BME280;26708;50.304;19.028;2023-11-18T04:27:11;98377.91;;;5.68;65.05
40982;BME280;26708;50.304;19.028;2023-11-18T04:29:28;98288.19;;;5.23;64.94
40982;BME280;26708;50.304;19.028;2023-11-18T04:31:53;98302.00;;;5.23;64.37
40982;BME280;26708;50.304;19.028;2023-11-18T04:34:47;98420.63;;;5.91;64.57
40982;BME280;26708;50.304;19.028;2023-11-18T04:37:21;98303.16;;;5.43;64.84
40982;BME280;26708;50.304;19.028;2023-11-18T04:39:51;98381.47;;;5.76;64.18
40982;BME280;26708;50.304;19.028;2023-11-18T04:42:08;98367.63;;;5.77;64.21
40982;BME280;26708;50.304;19.028;2023-11-18T04:44:15;98335.22;;;5.48;64.27
40982;BME280;26708;50.304;19.028;2023-11-18T04:46:20;98454.00;;;6.30;64.41
40982;BME280;26708;50.304;19.028;2023-11-18T04:48:27;98415.47;;;5.96;64.65
40982;BME280;26708;50.304;19.028;2023-11-18T04:50:35;98439.91;;;6.10;64.16
40982;BME280;26708;50.304;19.028;2023-11-18T04:52:41;98312.78;;;5.50;64.13
40982;BME280;26708;50.304;19.028;2023-11-18T04:54:46;98306.63;;;5.42;64.29
40982;BME280;26708;50.304;19.028;2023-11-18T04:56:52;98184.50;;;4.66;64.19
40982;BME280;26708;50.304;19.028;2023-11-18T05:01:43;98447.13;;;6.32;64.19
40982;BME280;26708;50.304;19.028;2023-11-18T05:03:48;98239.59;;;5.10;63.94
40982;BME280;26708;50.304;19.028;2023-11-18T05:06:00;98453.22;;;6.34;63.93
40982;BME280;26708;50.304;19.028;2023-11-18T05:08:06;98236.94;;;5.05;64.05
40982;BME280;26708;50.304;19.028;2023-11-18T05:10:15;98453.22;;;6.37;64.18
40982;BME280;26708;50.304;19.028;2023-11-18T05:12:23;98360.84;;;5.87;63.94
40982;BME280;26708;50.304;19.028;2023-11-18T05:14:30;98309.38;;;5.56;63.77
40982;BME280;26708;50.304;19.028;2023-11-18T05:16:35;98381.69;;;5.94;63.92
40982;BME280;26708;50.304;19.028;2023-11-18T05:18:41;98362.59;;;5.91;63.76
40982;BME280;26708;50.304;19.028;2023-11-18T05:20:45;98332.97;;;5.74;63.66
40982;BME280;26708;50.304;19.028;2023-11-18T05:22:51;98319.84;;;5.63;63.60
40982;BME280;26708;50.304;19.028;2023-11-18T05:24:57;98413.13;;;6.15;63.69
40982;BME280;26708;50.304;19.028;2023-11-18T05:27:02;98323.34;;;5.64;63.78
40982;BME280;26708;50.304;19.028;2023-11-18T05:29:07;98299.53;;;5.32;63.83
40982;BME280;26708;50.304;19.028;2023-11-18T05:31:13;98467.97;;;6.36;63.75
40982;BME280;26708;50.304;19.028;2023-11-18T05:33:17;98313.63;;;5.49;63.65
40982;BME280;26708;50.304;19.028;2023-11-18T05:35:22;98393.00;;;5.96;63.78
40982;BME280;26708;50.304;19.028;2023-11-18T05:37:31;98202.00;;;4.81;63.83
40982;BME280;26708;50.304;19.028;2023-11-18T05:39:45;98448.59;;;6.12;63.89
40982;BME280;26708;50.304;19.028;2023-11-18T05:41:47;98317.69;;;5.32;64.18
40982;BME280;26708;50.304;19.028;2023-11-18T05:43:54;98466.19;;;6.34;63.93
40982;BME280;26708;50.304;19.028;2023-11-18T05:45:59;98399.66;;;5.78;63.56
40982;BME280;26708;50.304;19.028;2023-11-18T05:48:21;98482.56;;;6.27;63.67
40982;BME280;26708;50.304;19.028;2023-11-18T05:50:27;98344.59;;;5.37;63.29
40982;BME280;26708;50.304;19.028;2023-11-18T05:52:32;98497.16;;;6.16;63.16
40982;BME280;26708;50.304;19.028;2023-11-18T05:54:37;98521.28;;;6.09;63.34
40982;BME280;26708;50.304;19.028;2023-11-18T05:56:50;98313.72;;;4.96;63.74
40982;BME280;26708;50.304;19.028;2023-11-18T05:58:55;98505.59;;;6.00;63.23
40982;BME280;26708;50.304;19.028;2023-11-18T06:00:57;98478.47;;;5.83;63.58
40982;BME280;26708;50.304;19.028;2023-11-18T06:03:02;98413.84;;;5.43;63.58
40982;BME280;26708;50.304;19.028;2023-11-18T06:05:08;98429.44;;;5.43;63.66
40982;BME280;26708;50.304;19.028;2023-11-18T06:07:14;98437.31;;;5.49;63.39
40982;BME280;26708;50.304;19.028;2023-11-18T06:09:21;98406.72;;;5.28;63.09
40982;BME280;26708;50.304;19.028;2023-11-18T06:11:27;98374.84;;;4.83;63.16
40982;BME280;26708;50.304;19.028;2023-11-18T06:13:35;98323.53;;;4.63;63.06
40982;BME280;26708;50.304;19.028;2023-11-18T06:15:38;98437.78;;;5.25;63.46
40982;BME280;26708;50.304;19.028;2023-11-18T06:17:44;98394.00;;;4.91;63.66
40982;BME280;26708;50.304;19.028;2023-11-18T06:19:48;98518.75;;;5.57;63.36
40982;BME280;26708;50.304;19.028;2023-11-18T06:21:54;98529.19;;;5.61;63.84
40982;BME280;26708;50.304;19.028;2023-11-18T06:24:00;98438.34;;;5.06;63.75
40982;BME280;26708;50.304;19.028;2023-11-18T06:26:05;98447.94;;;5.12;63.37
40982;BME280;26708;50.304;19.028;2023-11-18T06:28:08;98425.75;;;4.80;63.46
40982;BME280;26708;50.304;19.028;2023-11-18T06:30:15;98379.72;;;4.67;63.28
40982;BME280;26708;50.304;19.028;2023-11-18T06:32:20;98370.75;;;4.47;63.06
40982;BME280;26708;50.304;19.028;2023-11-18T06:34:27;98455.56;;;5.03;63.45
40982;BME280;26708;50.304;19.028;2023-11-18T06:36:32;98532.41;;;5.45;63.04
40982;BME280;26708;50.304;19.028;2023-11-18T06:38:40;98460.28;;;4.79;63.10
40982;BME280;26708;50.304;19.028;2023-11-18T06:40:57;98463.22;;;4.97;63.26
40982;BME280;26708;50.304;19.028;2023-11-18T06:43:23;98424.66;;;4.67;63.58
40982;BME280;26708;50.304;19.028;2023-11-18T06:45:49;98567.88;;;5.46;63.85
40982;BME280;26708;50.304;19.028;2023-11-18T06:50:40;98529.25;;;5.15;63.59
40982;BME280;26708;50.304;19.028;2023-11-18T06:59:21;98480.22;;;4.81;63.38
40982;BME280;26708;50.304;19.028;2023-11-18T07:01:29;98435.66;;;4.56;63.34
40982;BME280;26708;50.304;19.028;2023-11-18T07:04:00;98551.84;;;5.21;63.70
40982;BME280;26708;50.304;19.028;2023-11-18T07:07:02;98599.28;;;5.61;63.43
40982;BME280;26708;50.304;19.028;2023-11-18T07:09:17;98407.72;;;4.40;63.40
40982;BME280;26708;50.304;19.028;2023-11-18T07:12:14;98451.59;;;4.75;63.60
40982;BME280;26708;50.304;19.028;2023-11-18T07:18:07;98391.31;;;4.39;63.93
40982;BME280;26708;50.304;19.028;2023-11-18T07:20:15;98421.91;;;4.58;63.73
40982;BME280;26708;50.304;19.028;2023-11-18T07:22:30;98580.06;;;5.50;63.62
40982;BME280;26708;50.304;19.028;2023-11-18T07:27:53;98600.75;;;5.96;63.30
40982;BME280;26708;50.304;19.028;2023-11-18T07:29:58;98601.72;;;6.03;63.07
40982;BME280;26708;50.304;19.028;2023-11-18T07:32:04;98616.47;;;6.05;62.88
40982;BME280;26708;50.304;19.028;2023-11-18T07:34:14;98555.44;;;5.78;62.71
40982;BME280;26708;50.304;19.028;2023-11-18T07:36:19;98439.97;;;5.01;63.05
40982;BME280;26708;50.304;19.028;2023-11-18T07:38:24;98430.47;;;5.00;62.87
40982;BME280;26708;50.304;19.028;2023-11-18T07:40:29;98409.56;;;4.91;62.54
40982;BME280;26708;50.304;19.028;2023-11-18T07:42:35;98592.88;;;5.92;62.53
40982;BME280;26708;50.304;19.028;2023-11-18T07:44:38;98445.16;;;5.01;62.39
40982;BME280;26708;50.304;19.028;2023-11-18T07:46:43;98532.63;;;5.59;62.69
40982;BME280;26708;50.304;19.028;2023-11-18T07:48:48;98511.75;;;5.53;62.15
40982;BME280;26708;50.304;19.028;2023-11-18T07:50:53;98600.94;;;6.08;62.27
40982;BME280;26708;50.304;19.028;2023-11-18T07:52:58;98600.91;;;6.07;62.52
40982;BME280;26708;50.304;19.028;2023-11-18T07:55:01;98608.69;;;6.07;62.29
40982;BME280;26708;50.304;19.028;2023-11-18T07:57:06;98606.03;;;6.01;61.99
40982;BME280;26708;50.304;19.028;2023-11-18T07:59:11;98607.72;;;6.00;62.42
40982;BME280;26708;50.304;19.028;2023-11-18T08:01:18;98606.88;;;6.00;62.52
40982;BME280;26708;50.304;19.028;2023-11-18T08:03:22;98614.72;;;6.03;62.37
40982;BME280;26708;50.304;19.028;2023-11-18T08:05:25;98610.38;;;6.03;62.35
40982;BME280;26708;50.304;19.028;2023-11-18T08:07:33;98472.09;;;5.09;62.65
40982;BME280;26708;50.304;19.028;2023-11-18T08:09:36;98535.09;;;5.53;62.89
40982;BME280;26708;50.304;19.028;2023-11-18T08:11:42;98451.28;;;5.03;62.43
40982;BME280;26708;50.304;19.028;2023-11-18T08:13:48;98624.13;;;5.98;62.03
40982;BME280;26708;50.304;19.028;2023-11-18T08:15:52;98631.81;;;5.92;62.32
40982;BME280;26708;50.304;19.028;2023-11-18T08:17:59;98613.97;;;5.61;61.90
40982;BME280;26708;50.304;19.028;2023-11-18T08:20:06;98586.06;;;5.48;62.51
40982;BME280;26708;50.304;19.028;2023-11-18T08:22:15;98583.97;;;5.29;62.37
40982;BME280;26708;50.304;19.028;2023-11-18T08:24:28;98633.91;;;5.63;62.73
40982;BME280;26708;50.304;19.028;2023-11-18T08:26:42;98635.84;;;5.73;62.49
40982;BME280;26708;50.304;19.028;2023-11-18T08:28:47;98620.00;;;5.60;62.28
40982;BME280;26708;50.304;19.028;2023-11-18T08:30:53;98586.56;;;5.27;62.24
40982;BME280;26708;50.304;19.028;2023-11-18T08:33:06;98615.47;;;5.48;62.00
40982;BME280;26708;50.304;19.028;2023-11-18T08:35:13;98559.16;;;4.95;62.26
40982;BME280;26708;50.304;19.028;2023-11-18T08:37:26;98550.44;;;4.92;62.09
40982;BME280;26708;50.304;19.028;2023-11-18T08:39:47;98419.16;;;4.06;62.09
40982;BME280;26708;50.304;19.028;2023-11-18T08:41:52;98554.78;;;4.93;62.39
40982;BME280;26708;50.304;19.028;2023-11-18T08:43:57;98588.72;;;5.03;62.36
40982;BME280;26708;50.304;19.028;2023-11-18T08:46:07;98507.25;;;4.51;62.72
40982;BME280;26708;50.304;19.028;2023-11-18T08:48:13;98494.91;;;4.38;62.70
40982;BME280;26708;50.304;19.028;2023-11-18T08:50:19;98684.78;;;5.52;62.43
40982;BME280;26708;50.304;19.028;2023-11-18T08:52:25;98669.16;;;5.51;62.72
40982;BME280;26708;50.304;19.028;2023-11-18T08:54:30;98673.59;;;5.55;62.52
40982;BME280;26708;50.304;19.028;2023-11-18T08:57:03;98586.72;;;4.90;63.01
40982;BME280;26708;50.304;19.028;2023-11-18T08:59:21;98470.75;;;4.40;62.89
40982;BME280;26708;50.304;19.028;2023-11-18T09:01:26;98682.38;;;5.63;62.53
40982;BME280;26708;50.304;19.028;2023-11-18T09:03:29;98676.25;;;5.59;62.36
40982;BME280;26708;50.304;19.028;2023-11-18T09:05:40;98631.34;;;5.19;62.48
40982;BME280;26708;50.304;19.028;2023-11-18T09:07:44;98681.44;;;5.59;62.65
40982;BME280;26708;50.304;19.028;2023-11-18T09:09:51;98633.22;;;5.26;62.25
40982;BME280;26708;50.304;19.028;2023-11-18T09:12:03;98572.59;;;4.78;62.50
40982;BME280;26708;50.304;19.028;2023-11-18T09:14:09;98531.72;;;4.65;62.63
40982;BME280;26708;50.304;19.028;2023-11-18T09:16:16;98553.44;;;4.70;62.80
40982;BME280;26708;50.304;19.028;2023-11-18T09:18:23;98648.75;;;5.24;62.37
40982;BME280;26708;50.304;19.028;2023-11-18T09:20:31;98541.06;;;4.57;62.55
40982;BME280;26708;50.304;19.028;2023-11-18T09:22:37;98713.28;;;5.49;62.25
40982;BME280;26708;50.304;19.028;2023-11-18T09:24:42;98602.09;;;4.84;62.44
40982;BME280;26708;50.304;19.028;2023-11-18T09:26:47;98644.50;;;4.88;61.08
40982;BME280;26708;50.304;19.028;2023-11-18T09:28:55;98537.09;;;4.34;61.10
40982;BME280;26708;50.304;19.028;2023-11-18T09:31:01;98706.94;;;5.35;61.35
40982;BME280;26708;50.304;19.028;2023-11-18T09:33:06;98610.56;;;4.76;60.52
40982;BME280;26708;50.304;19.028;2023-11-18T09:35:15;98687.44;;;5.12;61.06
40982;BME280;26708;50.304;19.028;2023-11-18T09:37:22;98622.59;;;4.72;61.13
40982;BME280;26708;50.304;19.028;2023-11-18T09:39:28;98638.34;;;4.81;61.08
40982;BME280;26708;50.304;19.028;2023-11-18T09:41:38;98737.19;;;5.35;61.50
40982;BME280;26708;50.304;19.028;2023-11-18T09:43:45;98674.19;;;5.00;61.42
40982;BME280;26708;50.304;19.028;2023-11-18T09:46:03;98747.59;;;5.36;61.16
40982;BME280;26708;50.304;19.028;2023-11-18T09:48:18;98746.78;;;5.40;61.36
40982;BME280;26708;50.304;19.028;2023-11-18T09:50:28;98749.38;;;5.39;59.93
40982;BME280;26708;50.304;19.028;2023-11-18T09:52:42;98690.78;;;5.08;60.36
40982;BME280;26708;50.304;19.028;2023-11-18T09:55:02;98746.72;;;5.36;60.14
40982;BME280;26708;50.304;19.028;2023-11-18T09:57:26;98747.56;;;5.35;59.52
40982;BME280;26708;50.304;19.028;2023-11-18T09:59:42;98752.69;;;5.33;58.97
40982;BME280;26708;50.304;19.028;2023-11-18T10:02:03;98747.38;;;5.26;59.15
40982;BME280;26708;50.304;19.028;2023-11-18T10:04:13;98726.91;;;4.99;58.84
40982;BME280;26708;50.304;19.028;2023-11-18T10:06:22;98655.00;;;4.54;58.90
40982;BME280;26708;50.304;19.028;2023-11-18T10:08:27;98758.34;;;5.14;58.77
40982;BME280;26708;50.304;19.028;2023-11-18T10:10:33;98701.75;;;4.58;58.54
40982;BME280;26708;50.304;19.028;2023-11-18T10:12:48;98634.34;;;4.20;59.42
40982;BME280;26708;50.304;19.028;2023-11-18T10:14:59;98681.88;;;4.59;59.19
40982;BME280;26708;50.304;19.028;2023-11-18T10:17:07;98775.53;;;5.09;59.27
40982;BME280;26708;50.304;19.028;2023-11-18T10:19:15;98656.91;;;4.24;59.66
40982;BME280;26708;50.304;19.028;2023-11-18T10:21:34;98738.44;;;4.76;59.56
40982;BME280;26708;50.304;19.028;2023-11-18T10:23:58;98780.72;;;5.09;59.93
40982;BME280;26708;50.304;19.028;2023-11-18T10:26:06;98786.69;;;5.05;59.68
40982;BME280;26708;50.304;19.028;2023-11-18T10:28:21;98651.63;;;4.21;59.86
40982;BME280;26708;50.304;19.028;2023-11-18T10:30:26;98597.56;;;3.98;59.62
40982;BME280;26708;50.304;19.028;2023-11-18T10:32:36;98647.44;;;4.26;59.27
40982;BME280;26708;50.304;19.028;2023-11-18T10:34:39;98785.88;;;5.08;58.75
40982;BME280;26708;50.304;19.028;2023-11-18T10:36:59;98748.06;;;4.80;59.04
40982;BME280;26708;50.304;19.028;2023-11-18T10:39:10;98794.38;;;5.01;58.86
40982;BME280;26708;50.304;19.028;2023-11-18T10:41:18;98794.38;;;5.01;59.06
40982;BME280;26708;50.304;19.028;2023-11-18T10:43:25;98799.47;;;4.98;58.23
40982;BME280;26708;50.304;19.028;2023-11-18T10:45:30;98811.28;;;4.87;57.38
40982;BME280;26708;50.304;19.028;2023-11-18T10:47:36;98809.53;;;4.86;58.02
40982;BME280;26708;50.304;19.028;2023-11-18T10:49:42;98759.63;;;4.59;58.66
40982;BME280;26708;50.304;19.028;2023-11-18T10:51:47;98688.38;;;4.06;57.47
40982;BME280;26708;50.304;19.028;2023-11-18T10:53:53;98612.22;;;3.63;57.36
40982;BME280;26708;50.304;19.028;2023-11-18T10:56:00;98716.00;;;4.06;57.70
40982;BME280;26708;50.304;19.028;2023-11-18T10:58:05;98795.97;;;4.28;57.39
40982;BME280;26708;50.304;19.028;2023-11-18T11:00:18;98820.84;;;4.55;57.46
40982;BME280;26708;50.304;19.028;2023-11-18T11:02:30;98837.91;;;4.46;57.20
40982;BME280;26708;50.304;19.028;2023-11-18T11:04:45;98645.34;;;3.13;57.70
40982;BME280;26708;50.304;19.028;2023-11-18T11:06:48;98769.03;;;3.89;58.60
40982;BME280;26708;50.304;19.028;2023-11-18T11:08:59;98847.44;;;4.48;58.88
40982;BME280;26708;50.304;19.028;2023-11-18T11:11:03;98831.78;;;4.42;58.40
40982;BME280;26708;50.304;19.028;2023-11-18T11:13:14;98852.44;;;4.41;57.89
40982;BME280;26708;50.304;19.028;2023-11-18T11:15:26;98731.66;;;3.78;58.92
40982;BME280;26708;50.304;19.028;2023-11-18T11:17:31;98833.28;;;4.34;59.16
40982;BME280;26708;50.304;19.028;2023-11-18T11:19:53;98747.75;;;3.99;58.86
40982;BME280;26708;50.304;19.028;2023-11-18T11:22:18;98719.84;;;3.88;58.42
40982;BME280;26708;50.304;19.028;2023-11-18T11:24:37;98843.59;;;4.67;58.71
40982;BME280;26708;50.304;19.028;2023-11-18T11:27:00;98718.88;;;3.84;58.20
40982;BME280;26708;50.304;19.028;2023-11-18T11:29:25;98685.75;;;3.71;58.26
40982;BME280;26708;50.304;19.028;2023-11-18T11:31:38;98749.44;;;3.98;58.05
40982;BME280;26708;50.304;19.028;2023-11-18T11:33:49;98857.84;;;4.82;57.80
40982;BME280;26708;50.304;19.028;2023-11-18T11:36:05;98862.25;;;4.86;57.76
40982;BME280;26708;50.304;19.028;2023-11-18T11:38:14;98796.56;;;4.50;56.78
40982;BME280;26708;50.304;19.028;2023-11-18T11:40:22;98870.72;;;4.79;57.32
40982;BME280;26708;50.304;19.028;2023-11-18T11:42:28;98849.91;;;4.76;57.57
40982;BME280;26708;50.304;19.028;2023-11-18T11:44:33;98847.16;;;4.70;57.02
40982;BME280;26708;50.304;19.028;2023-11-18T11:46:43;98868.13;;;4.79;57.84
40982;BME280;26708;50.304;19.028;2023-11-18T11:48:55;98819.94;;;4.53;57.83
40982;BME280;26708;50.304;19.028;2023-11-18T11:51:16;98775.69;;;4.12;57.37
40982;BME280;26708;50.304;19.028;2023-11-18T11:53:33;98876.19;;;4.90;57.81
40982;BME280;26708;50.304;19.028;2023-11-18T11:55:50;98880.69;;;4.95;58.24
40982;BME280;26708;50.304;19.028;2023-11-18T11:57:55;98801.75;;;4.50;57.44
40982;BME280;26708;50.304;19.028;2023-11-18T12:00:03;98870.00;;;4.85;56.69
40982;BME280;26708;50.304;19.028;2023-11-18T12:02:21;98883.28;;;4.97;57.32
40982;BME280;26708;50.304;19.028;2023-11-18T12:04:30;98898.91;;;4.98;57.42
40982;BME280;26708;50.304;19.028;2023-11-18T12:06:43;98891.97;;;4.99;56.92